Time;durP1;ratioP1;P1;durP2;ratioP2;P2;SDS_P1;SDS_P2;PMS_P1;PMS_P2;Temp;Humidity;BMP_temperature;BMP_pressure;BME280_temperature;BME280_humidity;BME280_pressure;Samples;Min_cycle;Max_cycle;Signal;HPM_P1;HPM_P2
2022/06/13 00:01:25;;;;;;;5.22;3.70;;;;;;;8.52;90.29;101046.03;5010779;28;20100;-58
2022/06/13 00:03:56;;;;;;;6.25;3.58;;;;;;;8.71;89.26;101087.78;5012002;28;20052;-57
2022/06/13 00:06:27;;;;;;;7.55;4.00;;;;;;;8.79;89.54;101086.13;5007050;28;20334;-58
2022/06/13 00:08:57;;;;;;;4.90;3.70;;;;;;;8.88;89.42;101086.13;5009703;28;20112;-58
2022/06/13 00:11:28;;;;;;;6.70;3.80;;;;;;;9.09;89.65;101084.47;5010092;28;20073;-59
2022/06/13 00:14:00;;;;;;;6.65;3.47;;;;;;;9.26;88.80;101082.75;5008578;28;20058;-59
2022/06/13 00:16:31;;;;;;;5.38;3.40;;;;;;;9.12;87.12;101092.31;5008092;28;20056;-58
2022/06/13 00:19:01;;;;;;;5.40;3.72;;;;;;;9.23;88.33;101098.41;5015359;28;20084;-57
2022/06/13 00:21:35;;;;;;;5.47;3.83;;;;;;;9.37;87.14;101090.63;5021885;28;20535;-58
2022/06/13 00:24:07;;;;;;;8.32;4.28;;;;;;;9.41;86.71;101082.81;5021605;28;20058;-58
2022/06/13 00:26:39;;;;;;;6.88;3.95;;;;;;;9.35;86.69;101085.38;5021228;28;20057;-58
2022/06/13 00:29:11;;;;;;;5.25;3.35;;;;;;;9.57;87.00;101082.81;5022876;28;20053;-57
2022/06/13 00:31:41;;;;;;;6.00;3.53;;;;;;;9.64;86.12;101079.34;5021288;28;20053;-58
2022/06/13 00:34:12;;;;;;;6.40;3.83;;;;;;;9.77;87.12;101080.22;5020651;28;20057;-58
2022/06/13 00:36:43;;;;;;;6.80;3.72;;;;;;;9.88;86.36;101074.13;5021367;28;20045;-58
2022/06/13 00:39:13;;;;;;;6.60;4.00;;;;;;;9.92;85.51;101078.47;5022335;28;20053;-58
2022/06/13 00:41:45;;;;;;;8.55;4.72;;;;;;;10.03;84.90;101072.34;5022491;28;20218;-58
2022/06/13 00:44:22;;;;;;;7.88;4.38;;;;;;;10.08;85.25;101070.59;5022231;28;20118;-58
2022/06/13 00:46:54;;;;;;;5.78;3.30;;;;;;;10.16;84.25;101063.66;5022330;28;20090;-58
2022/06/13 00:49:28;;;;;;;5.43;3.20;;;;;;;10.22;83.85;101066.25;5022524;28;20045;-57
2022/06/13 00:52:07;;;;;;;5.43;3.20;;;;;;;10.24;83.73;101064.50;5022076;28;20360;-58
2022/06/13 00:54:41;;;;;;;8.65;3.72;;;;;;;10.30;84.17;101067.13;5020157;28;20054;-58
2022/06/13 00:57:18;;;;;;;7.00;4.13;;;;;;;10.39;83.87;101060.16;5020712;28;20050;-58
2022/06/13 00:59:55;;;;;;;5.85;3.38;;;;;;;10.48;83.12;101060.09;5021913;28;20076;-58
2022/06/13 01:02:26;;;;;;;5.22;3.58;;;;;;;10.58;82.96;101056.59;5022420;28;20054;-57
2022/06/13 01:04:58;;;;;;;6.97;3.05;;;;;;;10.76;82.12;101056.53;5022223;28;20054;-57
2022/06/13 01:07:30;;;;;;;7.65;4.25;;;;;;;10.98;83.46;101056.41;5022121;28;20096;-57
2022/06/13 01:12:48;;;;;;;7.80;3.88;;;;;;;11.05;80.91;101050.25;5023513;28;20041;-58
2022/06/13 01:15:41;;;;;;;6.63;3.53;;;;;;;11.00;81.22;101057.25;5024298;28;20109;-58
2022/06/13 01:18:29;;;;;;;5.55;3.17;;;;;;;11.03;81.52;101054.63;5024757;28;20080;-58
2022/06/13 01:21:13;;;;;;;4.63;2.80;;;;;;;11.24;81.44;101053.66;5025284;28;20060;-57
2022/06/13 01:24:25;;;;;;;4.95;2.63;;;;;;;11.38;79.93;101058.78;5042984;28;20581;-58
2022/06/13 01:27:42;;;;;;;4.72;3.15;;;;;;;11.48;79.11;101055.22;5044617;28;20053;-57
2022/06/13 01:30:51;;;;;;;4.07;2.78;;;;;;;11.41;78.75;101057.03;5042369;28;20093;-57
2022/06/13 01:33:29;;;;;;;5.93;2.75;;;;;;;11.47;80.02;101056.09;5043868;28;20048;-57
2022/06/13 01:36:09;;;;;;;6.50;3.50;;;;;;;11.68;79.76;101054.19;5042143;28;20751;-57
2022/06/13 01:38:54;;;;;;;5.72;2.42;;;;;;;11.66;78.92;101062.94;5043211;28;20053;-57
2022/06/13 01:41:34;;;;;;;4.22;2.47;;;;;;;11.71;78.75;101051.56;5042108;28;20251;-58
2022/06/13 01:44:12;;;;;;;4.57;2.58;;;;;;;11.84;79.39;101061.03;5042815;28;20324;-58
2022/06/13 01:46:53;;;;;;;3.67;2.72;;;;;;;11.81;77.49;101074.16;5043770;28;20080;-58
2022/06/13 01:49:31;;;;;;;4.93;2.85;;;;;;;11.90;78.93;101066.25;5046451;28;20040;-58
2022/06/13 01:52:10;;;;;;;9.23;3.60;;;;;;;11.89;78.54;101072.38;5046219;28;20120;-58
2022/06/13 01:54:48;;;;;;;3.53;2.72;;;;;;;12.03;78.47;101062.66;5046130;28;20087;-58
2022/06/13 01:57:34;;;;;;;5.65;3.05;;;;;;;12.41;78.30;101064.00;5046062;28;20041;-59
2022/06/13 02:00:11;;;;;;;2.83;2.30;;;;;;;12.06;75.80;101031.19;5046208;28;20060;-56
2022/06/13 02:02:49;;;;;;;4.03;2.88;;;;;;;12.24;78.39;101060.69;5043596;28;20054;-58
2022/06/13 02:05:24;;;;;;;6.05;3.45;;;;;;;12.44;77.92;101061.34;5044312;28;20115;-58
2022/06/13 02:08:00;;;;;;;4.05;2.40;;;;;;;12.54;77.18;101058.63;5045618;28;20068;-57
2022/06/13 02:10:56;;;;;;;2.90;2.30;;;;;;;12.57;77.58;101040.22;5043518;28;20116;-58
2022/06/13 02:13:34;;;;;;;4.40;2.50;;;;;;;12.55;77.05;101060.34;5044632;28;20049;-56
2022/06/13 02:16:10;;;;;;;4.40;2.80;;;;;;;12.61;77.29;101060.28;5045518;28;20045;-58
2022/06/13 02:18:50;;;;;;;5.38;2.53;;;;;;;12.62;76.00;101064.63;5046067;28;20082;-58
2022/06/13 02:21:26;;;;;;;6.47;2.72;;;;;;;12.63;77.33;101055.88;5045410;28;20173;-59
2022/06/13 02:24:05;;;;;;;4.15;2.80;;;;;;;12.86;76.23;101064.31;5045040;28;21081;-58
2022/06/13 02:26:38;;;;;;;3.88;2.47;;;;;;;12.95;75.32;101043.22;5045915;28;20049;-57
2022/06/13 02:29:16;;;;;;;4.75;2.75;;;;;;;13.25;75.48;101059.41;5021661;28;20060;-57
2022/06/13 02:31:51;;;;;;;4.35;2.70;;;;;;;13.41;75.97;101053.97;5031496;28;20059;-59
2022/06/13 02:34:27;;;;;;;3.25;2.50;;;;;;;13.02;75.37;101048.38;5037069;28;20247;-58
2022/06/13 02:37:04;;;;;;;5.10;2.83;;;;;;;13.32;76.72;101045.34;5038883;28;20071;-57
2022/06/13 02:39:42;;;;;;;4.78;3.20;;;;;;;13.42;75.05;101047.81;5034619;28;20050;-58
2022/06/13 02:42:16;;;;;;;4.78;2.40;;;;;;;13.49;74.86;101036.34;5038977;28;20092;-58
2022/06/13 02:44:51;;;;;;;4.22;3.08;;;;;;;13.41;76.29;101043.47;5038550;28;20068;-57
2022/06/13 02:47:27;;;;;;;3.85;2.50;;;;;;;13.18;75.81;101015.78;5039420;28;20054;-58
2022/06/13 02:50:04;;;;;;;3.83;2.58;;;;;;;13.34;74.45;101048.81;5039251;28;20241;-57
2022/06/13 02:52:42;;;;;;;5.00;2.45;;;;;;;13.36;75.03;101033.03;5038968;28;20065;-58
2022/06/13 02:55:16;;;;;;;5.63;2.60;;;;;;;13.33;75.08;101026.09;5038566;28;20117;-57
2022/06/13 02:58:03;;;;;;;3.88;2.00;;;;;;;13.45;75.58;101029.38;5038578;28;20060;-57
2022/06/13 03:00:45;;;;;;;3.40;2.55;;;;;;;13.31;74.90;101027.88;5038678;28;20057;-58
2022/06/13 03:03:22;;;;;;;3.85;2.40;;;;;;;13.24;75.89;101039.31;5038632;28;20079;-58
2022/06/13 03:06:01;;;;;;;8.40;2.60;;;;;;;13.25;76.12;101038.41;5038511;28;20050;-57
2022/06/13 03:08:48;;;;;;;3.08;2.60;;;;;;;13.41;76.91;101038.22;5038494;28;20061;-58
2022/06/13 03:11:40;;;;;;;5.80;2.60;;;;;;;13.54;74.51;101034.50;5038449;28;20057;-58
2022/06/13 03:14:36;;;;;;;7.13;2.63;;;;;;;13.34;74.43;101030.44;5038127;28;20113;-58
2022/06/13 03:17:16;;;;;;;3.28;2.63;;;;;;;13.47;74.94;101032.88;5038399;28;20311;-58
2022/06/13 03:19:51;;;;;;;4.75;2.90;;;;;;;13.33;74.62;101031.34;5038488;28;20330;-58
2022/06/13 03:22:35;;;;;;;4.90;2.88;;;;;;;13.37;75.78;101017.25;5038333;28;20062;-58
2022/06/13 03:25:14;;;;;;;6.00;3.05;;;;;;;13.58;74.95;101026.56;5033536;28;20045;-58
2022/06/13 03:27:51;;;;;;;4.05;2.95;;;;;;;13.68;74.74;101031.63;5028184;28;20050;-58
2022/06/13 03:30:24;;;;;;;7.75;3.03;;;;;;;13.87;74.15;101026.94;5018390;28;20116;-58
2022/06/13 03:35:49;;;;;;;5.25;3.15;;;;;;;13.66;74.33;101018.53;5018218;28;20049;-58
2022/06/13 03:38:25;;;;;;;4.70;2.77;;;;;;;13.73;74.94;101017.56;5017996;28;20120;-58
2022/06/13 03:40:59;;;;;;;6.22;2.92;;;;;;;13.86;74.82;101014.72;5020672;28;20499;-58
2022/06/13 03:43:35;;;;;;;8.10;3.13;;;;;;;13.99;74.95;101017.06;5026212;28;20278;-59
2022/06/13 03:46:12;;;;;;;5.97;3.45;;;;;;;14.18;74.55;101017.59;5037410;28;20554;-58
2022/06/13 03:48:51;;;;;;;5.10;3.10;;;;;;;14.23;74.74;100994.72;5028719;28;20065;-58
2022/06/13 03:51:25;;;;;;;3.43;2.50;;;;;;;14.55;73.74;101016.91;5020325;28;20343;-58
2022/06/13 03:54:03;;;;;;;4.73;3.10;;;;;;;14.61;73.77;101016.78;5037361;28;20475;-58
2022/06/13 03:56:40;;;;;;;6.23;3.00;;;;;;;14.92;72.70;101010.84;5036690;28;20559;-58
2022/06/13 03:59:15;;;;;;;5.80;3.03;;;;;;;14.94;72.23;101014.31;5035942;28;20342;-58
2022/06/13 04:01:49;;;;;;;16.33;3.73;;;;;;;14.93;72.23;100991.53;5025331;28;20322;-58
2022/06/13 04:04:24;;;;;;;4.17;3.20;;;;;;;14.99;71.14;101008.94;5028693;28;20304;-58
2022/06/13 04:06:55;;;;;;;6.00;3.70;;;;;;;14.90;72.11;101002.09;5035436;28;20610;-59
2022/06/13 04:09:31;;;;;;;4.40;2.80;;;;;;;14.85;72.57;100993.44;5033143;28;20304;-58
2022/06/13 04:12:18;;;;;;;5.70;3.77;;;;;;;14.95;72.31;101002.00;5034446;28;20523;-57
2022/06/13 04:15:00;;;;;;;7.43;3.40;;;;;;;15.01;71.57;101000.09;5028238;28;20602;-58
2022/06/13 04:17:36;;;;;;;7.07;4.10;;;;;;;15.04;71.88;100976.34;5029679;28;20323;-61
2022/06/13 04:20:19;;;;;;;5.80;3.90;;;;;;;15.15;72.83;100991.00;5017772;28;20289;-59
2022/06/13 04:22:52;;;;;;;5.40;3.40;;;;;;;15.12;72.48;100967.41;5035462;28;20300;-60
2022/06/13 04:25:31;;;;;;;9.00;3.80;;;;;;;15.41;72.88;100987.75;5036569;28;20312;-59
2022/06/13 04:28:06;;;;;;;10.20;3.38;;;;;;;15.38;72.38;100977.31;5036208;28;20297;-59
2022/06/13 04:30:38;;;;;;;7.17;3.77;;;;;;;15.50;71.75;100988.41;5036034;28;20136;-58
2022/06/13 04:33:13;;;;;;;6.77;3.60;;;;;;;15.40;71.69;100992.19;5035241;28;20359;-58
2022/06/13 04:35:45;;;;;;;5.10;3.50;;;;;;;15.28;71.28;100984.56;5035905;28;20778;-58
2022/06/13 04:38:18;;;;;;;6.03;3.37;;;;;;;15.41;72.68;100972.81;5036350;28;20355;-58
2022/06/13 04:40:56;;;;;;;12.40;4.00;;;;;;;15.59;71.69;100981.16;5036852;28;20525;-58
2022/06/13 04:43:33;;;;;;;4.57;3.07;;;;;;;15.61;71.44;100968.81;5035550;28;20796;-58
2022/06/13 04:46:08;;;;;;;6.03;2.93;;;;;;;15.66;70.25;100977.47;5029803;28;20348;-57
2022/06/13 04:48:41;;;;;;;5.57;3.43;;;;;;;15.78;70.74;100977.19;5033741;28;20338;-57
2022/06/13 04:51:14;;;;;;;4.90;3.30;;;;;;;15.90;71.28;100971.59;5036109;28;20299;-58
2022/06/13 04:53:55;;;;;;;7.83;3.93;;;;;;;16.08;70.96;100969.34;5036843;28;20288;-56
2022/06/13 04:56:28;;;;;;;7.67;3.60;;;;;;;16.23;70.37;100974.19;5036597;28;20292;-56
2022/06/13 04:59:01;;;;;;;5.83;3.50;;;;;;;16.22;71.35;100967.16;5036600;28;20292;-56
2022/06/13 05:01:34;;;;;;;6.77;3.87;;;;;;;16.54;71.30;100962.72;5036690;28;20296;-57
2022/06/13 05:04:10;;;;;;;5.63;3.20;;;;;;;16.60;69.82;100959.94;5036614;28;20354;-57
2022/06/13 05:06:45;;;;;;;6.53;3.70;;;;;;;16.73;69.26;100948.09;5036876;28;20386;-56
2022/06/13 05:09:19;;;;;;;6.90;3.20;;;;;;;16.59;68.68;100908.06;5017055;28;20764;-58
2022/06/13 05:11:55;;;;;;;6.07;3.47;;;;;;;17.02;69.22;100947.22;5025349;28;20291;-59
2022/06/13 05:14:31;;;;;;;4.97;2.93;;;;;;;17.23;66.68;100953.56;5022741;28;20309;-58
2022/06/13 05:17:22;;;;;;;3.20;2.57;;;;;;;17.37;66.53;100961.03;5035918;28;20300;-59
2022/06/13 05:20:02;;;;;;;10.23;3.20;;;;;;;17.90;68.04;100970.69;5036250;28;20346;-58
2022/06/13 05:22:50;;;;;;;3.83;2.70;;;;;;;18.06;65.59;100955.13;5036355;28;20314;-58
2022/06/13 05:25:40;;;;;;;5.13;2.90;;;;;;;18.24;65.06;100956.22;5037007;28;20292;-58
2022/06/13 05:28:19;;;;;;;8.23;3.20;;;;;;;18.58;65.70;100953.19;5037166;28;20288;-59
2022/06/13 05:30:52;;;;;;;7.80;3.27;;;;;;;18.92;66.91;100951.88;5037147;28;20304;-58
2022/06/13 05:33:26;;;;;;;5.40;3.13;;;;;;;19.09;65.77;100953.84;5037576;28;20361;-58
2022/06/13 05:35:59;;;;;;;7.37;2.90;;;;;;;18.90;61.83;100949.31;5040104;28;20344;-57
2022/06/13 05:38:35;;;;;;;6.83;2.77;;;;;;;18.64;64.52;100949.44;5042145;28;20287;-58
2022/06/13 05:41:06;;;;;;;8.67;3.10;;;;;;;18.77;65.72;100958.66;5042031;28;20282;-58
2022/06/13 05:43:39;;;;;;;4.57;2.90;;;;;;;18.38;64.64;100926.63;5042013;28;20280;-58
2022/06/13 05:46:16;;;;;;;7.50;2.53;;;;;;;18.42;65.79;100944.09;5042671;28;20291;-58
2022/06/13 05:48:47;;;;;;;4.37;2.67;;;;;;;18.58;67.20;100949.69;5040396;28;20323;-58
2022/06/13 05:51:18;;;;;;;7.07;3.40;;;;;;;18.62;65.94;100953.91;5041136;28;20304;-58
2022/06/13 05:53:49;;;;;;;6.80;3.37;;;;;;;18.77;66.86;100963.06;5042504;28;20350;-58
2022/06/13 05:56:21;;;;;;;7.83;3.77;;;;;;;19.01;66.77;100955.94;5043695;28;20306;-58
2022/06/13 05:58:54;;;;;;;8.10;4.53;;;;;;;19.15;66.22;100953.59;5046124;28;20288;-58
2022/06/13 06:01:25;;;;;;;4.17;2.60;;;;;;;19.21;64.52;100937.44;5046474;28;20670;-57
2022/06/13 06:03:55;;;;;;;8.07;4.30;;;;;;;19.32;65.30;100934.34;5045904;28;20581;-57
2022/06/13 06:06:29;;;;;;;6.03;4.03;;;;;;;19.44;64.86;100930.31;5046006;28;20338;-57
2022/06/13 06:09:00;;;;;;;9.73;2.87;;;;;;;19.52;64.16;100936.16;5045910;28;20288;-57
2022/06/13 06:11:32;;;;;;;9.83;2.60;;;;;;;19.51;63.08;100931.78;5045850;28;20286;-57
2022/06/13 06:14:04;;;;;;;9.07;2.97;;;;;;;19.48;64.71;100934.56;5045775;28;20280;-57
2022/06/13 06:16:35;;;;;;;11.70;3.60;;;;;;;19.67;65.73;100924.00;5044037;28;20284;-57
2022/06/13 06:19:06;;;;;;;7.07;3.43;;;;;;;19.68;65.04;100931.09;5043834;28;20398;-57
2022/06/13 06:21:37;;;;;;;5.57;3.50;;;;;;;19.59;64.50;100937.59;5044215;28;20334;-57
2022/06/13 06:24:09;;;;;;;9.23;3.10;;;;;;;19.51;63.99;100934.44;5043858;28;20883;-57
2022/06/13 06:26:40;;;;;;;7.37;3.40;;;;;;;19.39;63.96;100934.03;5043349;28;20499;-58
2022/06/13 06:29:13;;;;;;;10.13;5.27;;;;;;;19.48;64.83;100930.13;5042011;28;20287;-57
2022/06/13 06:31:44;;;;;;;8.10;5.03;;;;;;;19.63;64.26;100936.56;5044338;28;20653;-58
2022/06/13 06:34:15;;;;;;;11.07;4.87;;;;;;;19.60;63.28;100936.69;5043634;28;20287;-58
2022/06/13 06:36:46;;;;;;;8.43;4.10;;;;;;;19.59;63.53;100937.59;5043729;28;20315;-58
2022/06/13 06:39:17;;;;;;;11.67;4.47;;;;;;;19.72;64.53;100933.56;5043931;28;20532;-58
2022/06/13 06:41:48;;;;;;;14.33;6.20;;;;;;;19.80;64.71;100925.25;5043374;28;20298;-60
2022/06/13 06:44:21;;;;;;;6.50;4.60;;;;;;;19.83;64.43;100925.97;5043612;28;20514;-58
2022/06/13 06:46:51;;;;;;;10.57;4.93;;;;;;;19.78;64.30;100943.00;5044437;28;20284;-58
2022/06/13 06:49:22;;;;;;;12.60;6.37;;;;;;;19.73;64.28;100929.94;5043692;28;20913;-58
2022/06/13 06:51:53;;;;;;;12.73;6.17;;;;;;;19.72;63.84;100922.06;5043106;28;20467;-58
2022/06/13 07:00:00;;;;;;;10.83;5.50;;;;;;;19.90;64.17;100937.19;5043616;28;20334;-57
2022/06/13 07:02:31;;;;;;;25.20;10.50;;;;;;;19.85;63.46;100928.56;5042091;28;20323;-58
2022/06/13 07:05:04;;;;;;;16.13;8.30;;;;;;;19.88;63.72;100932.88;5043043;28;20319;-57
2022/06/13 07:07:35;;;;;;;16.57;11.53;;;;;;;20.12;62.84;100931.78;5042154;28;20323;-58
2022/06/13 07:10:07;;;;;;;7.13;4.07;;;;;;;20.15;62.33;100931.63;5043294;28;20311;-58
2022/06/13 07:12:38;;;;;;;10.73;4.67;;;;;;;19.96;62.66;100925.41;5041761;28;20288;-57
2022/06/13 07:15:14;;;;;;;10.93;5.20;;;;;;;19.94;62.20;100927.28;5044437;28;20969;-57
2022/06/13 07:17:45;;;;;;;8.70;4.23;;;;;;;19.89;62.63;100924.81;5045159;28;20330;-57
2022/06/13 07:20:16;;;;;;;7.23;4.00;;;;;;;20.01;63.15;100928.72;5044669;28;20280;-58
2022/06/13 07:22:51;;;;;;;4.60;3.00;;;;;;;20.08;63.13;100908.94;5044828;28;20851;-58
2022/06/13 07:25:24;;;;;;;18.60;3.30;;;;;;;20.11;61.17;100922.06;5044467;28;20311;-58
2022/06/13 07:27:55;;;;;;;10.27;6.00;;;;;;;20.22;62.18;100911.84;5045021;28;20368;-58
2022/06/13 07:30:30;;;;;;;8.03;4.40;;;;;;;20.19;61.56;100930.56;5045267;28;20696;-57
2022/06/13 07:33:02;;;;;;;8.03;3.00;;;;;;;20.17;62.39;100937.72;5044575;28;20307;-58
2022/06/13 07:35:33;;;;;;;5.30;3.30;;;;;;;20.07;61.97;100939.06;5043865;28;20345;-58
2022/06/13 07:38:19;;;;;;;7.87;3.60;;;;;;;19.89;61.75;100923.97;5042468;28;20311;-59
2022/06/13 07:40:54;;;;;;;6.03;2.97;;;;;;;19.77;61.68;100936.00;5042176;28;20279;-58
2022/06/13 07:46:16;;;;;;;12.00;4.27;;;;;;;19.39;62.15;100946.41;5041361;28;20288;-58
2022/06/13 07:48:49;;;;;;;5.57;3.27;;;;;;;19.37;62.62;100954.44;5044229;28;20341;-58
2022/06/13 07:51:21;;;;;;;5.80;2.80;;;;;;;19.34;62.81;100954.53;5043853;28;20307;-58
2022/06/13 07:53:52;;;;;;;8.53;3.00;;;;;;;19.24;62.46;100962.94;5043054;28;20303;-58
2022/06/13 07:56:29;;;;;;;9.83;3.20;;;;;;;19.19;63.09;100955.19;5042860;28;20357;-58
2022/06/13 07:59:00;;;;;;;6.00;3.23;;;;;;;19.09;62.92;100969.72;5042760;28;20303;-59
2022/06/13 08:01:34;;;;;;;8.10;4.07;;;;;;;19.08;63.23;100957.44;5044092;28;20316;-58
2022/06/13 08:04:05;;;;;;;6.47;3.27;;;;;;;19.03;62.97;100970.00;5043948;28;20359;-59
2022/06/13 08:06:42;;;;;;;11.17;4.33;;;;;;;18.85;63.09;100956.56;5042519;28;20535;-59
2022/06/13 08:09:14;;;;;;;6.40;4.13;;;;;;;18.70;63.36;100963.28;5042560;28;20276;-58
2022/06/13 08:11:48;;;;;;;21.33;4.17;;;;;;;18.69;63.49;100966.00;5042712;28;20626;-59
2022/06/13 08:14:19;;;;;;;5.13;3.10;;;;;;;18.69;63.89;100971.28;5041728;28;20284;-59
2022/06/13 08:16:53;;;;;;;6.47;3.53;;;;;;;18.65;63.96;100967.06;5041213;28;20351;-59
2022/06/13 08:19:24;;;;;;;8.77;3.50;;;;;;;18.42;63.54;100941.44;5040762;28;20292;-57
2022/06/13 08:21:55;;;;;;;8.13;4.00;;;;;;;18.54;63.70;100963.00;5040746;28;20347;-58
2022/06/13 08:24:26;;;;;;;6.17;3.47;;;;;;;18.49;63.85;100959.66;5043684;28;20280;-58
2022/06/13 08:26:57;;;;;;;6.73;3.53;;;;;;;18.42;64.52;100952.91;5042613;28;20291;-58
2022/06/13 08:29:31;;;;;;;10.77;3.87;;;;;;;18.31;63.74;100960.38;5041717;28;20676;-58
2022/06/13 08:32:04;;;;;;;8.00;4.47;;;;;;;18.24;64.05;100954.44;5041345;28;20374;-58
2022/06/13 08:34:41;;;;;;;13.70;5.23;;;;;;;18.17;64.26;100957.38;5042485;28;20877;-57
2022/06/13 08:37:16;;;;;;;6.03;3.90;;;;;;;18.10;64.03;100957.63;5043786;28;20354;-57
2022/06/13 08:39:47;;;;;;;5.97;3.67;;;;;;;17.96;64.32;100954.59;5045714;28;20401;-56
2022/06/13 08:42:26;;;;;;;7.87;4.30;;;;;;;17.94;64.89;100961.72;5040046;28;20487;-57
2022/06/13 08:45:04;;;;;;;7.53;4.17;;;;;;;17.88;64.73;100956.66;5043227;28;20307;-57
2022/06/13 08:47:46;;;;;;;6.63;4.20;;;;;;;17.69;65.09;100946.69;5045696;28;20705;-57
2022/06/13 08:50:33;;;;;;;8.17;3.90;;;;;;;17.74;65.39;100945.66;5043169;28;20288;-58
2022/06/13 08:53:09;;;;;;;5.27;3.10;;;;;;;17.81;64.87;100956.00;5041921;28;20292;-57
2022/06/13 08:55:47;;;;;;;5.07;3.37;;;;;;;17.45;64.97;100921.13;5040643;28;20300;-58
2022/06/13 08:58:24;;;;;;;9.87;3.30;;;;;;;17.49;64.86;100943.03;5042433;28;20294;-58
2022/06/13 09:00:58;;;;;;;8.17;3.07;;;;;;;17.36;65.46;100947.88;5043460;28;20531;-58
2022/06/13 09:03:38;;;;;;;8.47;3.23;;;;;;;17.24;65.57;100949.97;5042921;28;20367;-58
2022/06/13 09:06:16;;;;;;;6.90;2.97;;;;;;;17.07;65.32;100947.03;5042453;28;20860;-58
2022/06/13 09:08:53;;;;;;;7.70;2.73;;;;;;;17.02;65.91;100960.41;5043162;28;20367;-59
2022/06/13 09:11:35;;;;;;;8.80;2.70;;;;;;;17.00;66.11;100966.66;5043015;28;20338;-57
2022/06/13 09:14:16;;;;;;;6.17;2.87;;;;;;;17.00;66.65;100964.00;5042878;28;20334;-58
2022/06/13 09:16:51;;;;;;;4.60;2.80;;;;;;;17.00;66.40;100977.22;5041973;28;20370;-58
2022/06/13 09:19:27;;;;;;;4.90;2.70;;;;;;;16.96;66.29;100971.13;5040886;28;20530;-59
2022/06/13 09:22:06;;;;;;;5.10;2.60;;;;;;;16.68;66.28;100952.63;5041919;28;20337;-59
2022/06/13 09:24:43;;;;;;;10.18;2.60;;;;;;;16.66;66.49;100985.25;5042695;28;20281;-59
2022/06/13 09:27:19;;;;;;;4.43;2.40;;;;;;;16.47;67.24;100955.91;5040368;28;20112;-59
2022/06/13 09:29:56;;;;;;;5.93;2.30;;;;;;;16.58;66.74;100990.78;5041876;28;20491;-58
2022/06/13 09:32:33;;;;;;;7.50;2.67;;;;;;;16.52;66.79;100998.84;5044224;28;20312;-58
2022/06/13 09:35:13;;;;;;;4.83;2.43;;;;;;;16.35;66.86;101004.63;5044748;28;20843;-58
2022/06/13 09:37:52;;;;;;;8.03;2.70;;;;;;;16.23;67.11;101000.56;5046495;28;20288;-59
2022/06/13 09:40:32;;;;;;;6.50;2.90;;;;;;;16.07;67.37;101004.50;5046339;28;20272;-58
2022/06/13 09:43:18;;;;;;;5.10;2.90;;;;;;;15.86;67.80;101012.09;5046365;28;20100;-58
2022/06/13 09:46:03;;;;;;;6.60;3.20;;;;;;;15.48;68.15;100984.94;5046800;28;20283;-58
2022/06/13 09:48:46;;;;;;;7.57;2.87;;;;;;;15.47;68.92;101014.78;5046365;28;20295;-59
2022/06/13 09:51:32;;;;;;;9.43;2.90;;;;;;;15.37;69.36;101017.69;5045812;28;20486;-59
2022/06/13 09:54:10;;;;;;;4.27;2.30;;;;;;;15.17;69.76;101015.53;5046101;28;20506;-59
2022/06/13 09:56:52;;;;;;;6.07;2.50;;;;;;;14.91;70.38;101006.47;5046026;28;20287;-58
2022/06/13 09:59:39;;;;;;;6.13;2.73;;;;;;;14.75;70.88;101023.50;5046064;28;20291;-58
2022/06/13 10:02:17;;;;;;;11.13;5.67;;;;;;;14.57;71.48;101025.59;5045920;28;21076;-58
2022/06/13 10:04:59;;;;;;;9.23;4.70;;;;;;;14.37;72.03;101022.50;5044186;28;20300;-58
2022/06/13 10:07:41;;;;;;;8.00;4.93;;;;;;;13.99;72.82;101005.69;5043988;28;20322;-59
2022/06/13 10:10:18;;;;;;;15.80;9.10;;;;;;;13.73;73.81;101020.19;5045527;28;20283;-58
2022/06/13 10:13:14;;;;;;;9.37;5.50;;;;;;;13.48;74.92;101024.09;5045791;28;20319;-59
2022/06/13 10:15:55;;;;;;;4.07;2.93;;;;;;;13.31;75.83;101027.00;5045342;28;20552;-58
2022/06/13 10:18:57;;;;;;;5.50;3.40;;;;;;;13.15;76.79;101026.31;5045895;28;20287;-58
2022/06/13 10:21:38;;;;;;;5.80;3.73;;;;;;;12.99;77.13;101014.31;5044893;28;20332;-58
2022/06/13 10:24:24;;;;;;;5.90;3.97;;;;;;;12.98;77.61;101033.56;5045195;28;20386;-58
2022/06/13 10:27:08;;;;;;;6.73;4.50;;;;;;;12.79;78.31;101033.81;5045650;28;20302;-59
2022/06/13 10:29:52;;;;;;;4.50;2.87;;;;;;;12.72;78.65;101043.50;5045381;28;20307;-59
2022/06/13 10:32:36;;;;;;;2.83;1.80;;;;;;;12.58;79.00;101045.47;5044368;28;20352;-58
2022/06/13 10:35:20;;;;;;;4.50;1.85;;;;;;;12.51;79.54;101052.53;5044787;28;20364;-59
2022/06/13 10:38:04;;;;;;;15.35;7.43;;;;;;;12.08;77.68;101054.72;5045267;28;20200;-59
2022/06/13 10:40:37;;;;;;;13.38;7.13;;;;;;;11.57;76.88;101057.75;5044531;28;20052;-58
2022/06/13 10:43:08;;;;;;;13.25;8.32;;;;;;;10.96;77.01;101059.03;5043333;28;20369;-59
2022/06/13 10:45:41;;;;;;;18.23;8.45;;;;;;;10.46;78.11;101023.56;5044884;28;20054;-59
2022/06/13 10:48:17;;;;;;;15.40;8.93;;;;;;;10.61;78.07;101071.38;5045399;28;20257;-58
2022/06/13 10:50:53;;;;;;;17.42;8.70;;;;;;;10.42;78.55;101050.56;5045205;28;20112;-59
2022/06/13 10:53:27;;;;;;;15.13;8.40;;;;;;;10.27;79.25;101040.97;5044719;28;20095;-59
2022/06/13 10:56:01;;;;;;;17.45;8.27;;;;;;;10.02;79.41;101010.59;5044901;28;20108;-59
2022/06/13 10:58:39;;;;;;;18.42;8.73;;;;;;;10.35;79.57;101073.19;5044705;28;20340;-59
2022/06/13 11:01:13;;;;;;;15.68;8.88;;;;;;;10.39;80.16;101081.91;5044682;28;20069;-59
2022/06/13 11:03:45;;;;;;;14.32;9.15;;;;;;;10.41;80.26;101087.13;5044710;28;20045;-57
2022/06/13 11:06:24;;;;;;;18.02;9.45;;;;;;;10.41;80.38;101084.50;5045067;28;20359;-57
2022/06/13 11:09:02;;;;;;;19.48;9.38;;;;;;;10.49;81.15;101085.38;5044610;28;20108;-57
2022/06/13 11:11:38;;;;;;;22.13;9.63;;;;;;;10.58;81.69;101077.50;5044245;28;20068;-57
2022/06/13 11:14:25;;;;;;;20.75;8.40;;;;;;;10.66;82.12;101080.06;5044670;28;20053;-56
2022/06/13 11:22:40;;;;;;;13.70;7.85;;;;;;;10.85;83.09;101078.25;5044780;28;20053;-58
2022/06/13 11:25:22;;;;;;;22.05;8.50;;;;;;;10.98;83.45;101090.41;5044332;28;20212;-57
2022/06/13 11:28:06;;;;;;;23.90;10.32;;;;;;;11.07;83.60;101081.66;5041822;28;20071;-56
2022/06/13 11:30:50;;;;;;;35.45;20.75;;;;;;;11.13;83.73;101090.34;5043720;28;20581;-57
2022/06/13 11:33:33;;;;;;;37.88;21.48;;;;;;;11.19;84.20;101076.34;5044320;28;20534;-57
2022/06/13 11:36:21;;;;;;;30.85;14.02;;;;;;;11.25;84.59;101078.91;5044062;28;20279;-57
2022/06/13 11:38:55;;;;;;;17.15;10.07;;;;;;;11.13;85.32;101061.56;5044456;28;20072;-57
2022/06/13 11:41:37;;;;;;;18.30;8.85;;;;;;;11.38;85.67;101077.09;5043887;28;20084;-57
2022/06/13 11:44:13;;;;;;;13.13;6.15;;;;;;;11.23;85.63;101046.66;5044044;28;20088;-57
2022/06/13 11:46:46;;;;;;;11.77;6.03;;;;;;;11.48;85.96;101084.00;5043173;28;20053;-57
2022/06/13 11:49:29;;;;;;;10.18;5.18;;;;;;;11.53;86.08;101082.25;5044254;28;20080;-57
2022/06/13 11:52:07;;;;;;;5.95;4.18;;;;;;;11.55;86.36;101090.94;5044011;28;20362;-57
2022/06/13 11:54:42;;;;;;;6.80;3.05;;;;;;;11.38;86.49;101050.91;5043095;28;20527;-58
2022/06/13 11:57:23;;;;;;;7.10;4.53;;;;;;;11.65;86.38;101084.75;5044031;28;20436;-58
2022/06/13 12:00:01;;;;;;;5.70;4.00;;;;;;;11.70;86.31;101089.94;5043347;28;20308;-58
2022/06/13 12:02:56;;;;;;;9.65;4.30;;;;;;;11.71;86.20;101093.47;5043911;28;20102;-59
2022/06/13 12:05:32;;;;;;;3.63;2.20;;;;;;;11.66;86.09;101086.50;5043385;28;20042;-58
2022/06/13 12:08:06;;;;;;;5.95;2.83;;;;;;;11.58;85.97;101080.47;5043589;28;20092;-58
2022/06/13 12:10:41;;;;;;;4.95;3.00;;;;;;;11.59;86.12;101087.41;5043400;28;20133;-58
2022/06/13 12:13:16;;;;;;;3.72;2.75;;;;;;;11.25;86.21;101033.59;5043704;28;20491;-58
2022/06/13 12:15:58;;;;;;;3.60;2.28;;;;;;;11.64;86.20;101090.88;5043833;28;20103;-57
2022/06/13 12:18:37;;;;;;;5.63;2.05;;;;;;;11.61;86.00;101093.50;5043643;28;20052;-58
2022/06/13 12:21:15;;;;;;;5.82;2.60;;;;;;;11.57;86.00;101094.41;5043222;28;20095;-58
2022/06/13 12:23:50;;;;;;;3.75;3.03;;;;;;;11.57;86.10;101098.78;5043570;28;20049;-58
2022/06/13 12:26:27;;;;;;;4.05;2.38;;;;;;;11.54;86.42;101097.06;5043624;28;20324;-57
2022/06/13 12:29:12;;;;;;;4.15;2.60;;;;;;;11.53;86.60;101097.94;5043392;28;20120;-57